Sakarya, Turkey
Current Conditions -  °F | °C
As of 11:50 PM on Tuesday 27 Jan 2015 (Local Time) from LTBQ Reporting Station
Haze Haze  
Wind Chill: 45°   Ceiling: 10000
Heat Index: 45°   Visibility: 3mi
Dew Point: 45°   Wind: 3mph
Humidity: 100%   Direction: 300°WNW
Pressure: 29.77"   Gusts: NA
Location:  40.75°N, 30.45°E
Report Text: LTBQ 272050Z 30003KT 230V010 5000 BR SCT005 SCT030 BKN100 07/07 Q1008 RESHRA TEMPO 4000
Loading
Personal Weather Stations






























Interactive Weather Map New forecast layout! Learn more

10-Day Weather Forecast

Advertisements
Track Severe Weather on mobile